Time,TemperatureF,DewpointF,PressureIn,WindDirection,WindDirectionDegrees,WindSpeedMPH,WindSpeedGustMPH,Humidity,HourlyPrecipIn,Conditions,Clouds,dailyrainin,SolarRadiationWatts/m^2,SoftwareType,DateUTC
2013-07-14 00:22:00,63.0,62.0,-100.00,SE,137,3.0,5.0,96,0.00,,,0.00,0.000000,,2013-07-14 07:22:00,
2013-07-14 00:32:00,63.0,62.0,-100.00,SE,137,3.0,5.0,96,0.00,,,0.00,0.000000,,2013-07-14 07:32:00,
2013-07-14 00:43:00,63.0,62.0,-100.00,SE,137,3.0,5.0,96,0.00,,,0.00,0.000000,,2013-07-14 07:43:00,
2013-07-14 00:51:00,62.0,61.0,-100.00,SSW,212,1.0,3.0,97,0.00,,,0.00,0.000000,,2013-07-14 07:51:00,
2013-07-14 01:11:00,62.0,61.0,-100.00,SSW,212,1.0,3.0,97,0.00,,,0.00,0.000000,,2013-07-14 08:11:00,
2013-07-14 01:22:00,62.0,61.0,-100.00,SSW,212,1.0,3.0,97,0.00,,,0.00,0.000000,,2013-07-14 08:22:00,
2013-07-14 01:32:00,62.0,61.0,-100.00,SSW,212,1.0,3.0,97,0.00,,,0.00,0.000000,,2013-07-14 08:32:00,
2013-07-14 01:42:00,62.0,61.0,-100.00,SSW,212,1.0,3.0,97,0.00,,,0.00,0.000000,,2013-07-14 08:42:00,
2013-07-14 01:51:00,62.0,61.0,-100.00,SE,134,1.0,2.0,98,0.00,,,0.00,0.000000,,2013-07-14 08:51:00,
2013-07-14 02:11:00,62.0,61.0,-100.00,SE,134,1.0,2.0,98,0.00,,,0.00,0.000000,,2013-07-14 09:11:00,
2013-07-14 02:22:00,62.0,61.0,-100.00,SE,134,1.0,2.0,98,0.00,,,0.00,0.000000,,2013-07-14 09:22:00,
2013-07-14 02:32:00,62.0,61.0,-100.00,SE,134,1.0,2.0,98,0.00,,,0.00,0.000000,,2013-07-14 09:32:00,
2013-07-14 02:42:00,62.0,61.0,-100.00,SE,134,1.0,2.0,98,0.00,,,0.00,0.000000,,2013-07-14 09:42:00,
2013-07-14 02:51:00,62.0,62.0,-100.00,SSW,192,1.0,4.0,99,0.00,,,0.00,0.000000,,2013-07-14 09:51:00,
2013-07-14 03:11:00,62.0,62.0,-100.00,SSW,192,1.0,4.0,99,0.00,,,0.00,0.000000,,2013-07-14 10:11:00,
2013-07-14 03:21:00,62.0,62.0,-100.00,SSW,192,1.0,4.0,99,0.00,,,0.00,0.000000,,2013-07-14 10:21:00,
2013-07-14 03:32:00,62.0,62.0,-100.00,SSW,192,1.0,4.0,99,0.00,,,0.00,0.000000,,2013-07-14 10:32:00,
2013-07-14 03:42:00,62.0,62.0,-100.00,SSW,192,1.0,4.0,99,0.00,,,0.00,0.000000,,2013-07-14 10:42:00,
2013-07-14 03:51:00,62.0,62.0,-100.00,East,87,4.0,4.0,99,0.00,,,0.00,0.000000,,2013-07-14 10:51:00,
2013-07-14 04:11:00,62.0,62.0,-100.00,East,87,4.0,4.0,99,0.00,,,0.00,0.000000,,2013-07-14 11:11:00,
2013-07-14 04:21:00,62.0,62.0,-100.00,East,87,4.0,4.0,99,0.00,,,0.00,0.000000,,2013-07-14 11:21:00,
2013-07-14 04:32:00,62.0,62.0,-100.00,East,87,4.0,4.0,99,0.00,,,0.00,0.000000,,2013-07-14 11:32:00,
2013-07-14 04:43:00,62.0,62.0,-100.00,East,87,4.0,4.0,99,0.00,,,0.00,0.000000,,2013-07-14 11:43:00,
2013-07-14 04:51:00,62.0,62.0,-100.00,East,98,2.0,5.0,99,0.00,,,0.00,0.000000,,2013-07-14 11:51:00,
2013-07-14 05:11:00,62.0,62.0,-100.00,East,98,2.0,5.0,99,0.00,,,0.00,0.000000,,2013-07-14 12:11:00,
2013-07-14 05:22:00,62.0,62.0,-100.00,East,98,2.0,5.0,99,0.00,,,0.00,0.000000,,2013-07-14 12:22:00,
2013-07-14 05:32:00,62.0,62.0,-100.00,East,98,2.0,5.0,99,0.00,,,0.00,0.000000,,2013-07-14 12:32:00,
2013-07-14 05:43:00,62.0,62.0,-100.00,East,98,2.0,5.0,99,0.00,,,0.00,0.000000,,2013-07-14 12:43:00,
2013-07-14 05:51:00,63.0,63.0,-100.00,East,85,3.0,5.0,99,0.00,,,0.00,0.000000,,2013-07-14 12:51:00,
2013-07-14 06:22:00,63.0,63.0,-100.00,East,85,3.0,5.0,99,0.00,,,0.00,0.000000,,2013-07-14 13:22:00,
2013-07-14 06:32:00,63.0,63.0,-100.00,East,85,3.0,5.0,99,0.00,,,0.00,0.000000,,2013-07-14 13:32:00,
2013-07-14 06:42:00,63.0,63.0,-100.00,East,85,3.0,5.0,99,0.00,,,0.00,0.000000,,2013-07-14 13:42:00,
2013-07-14 06:51:00,63.0,62.0,-100.00,NE,51,0.0,4.0,98,0.00,,,0.00,13.000000,,2013-07-14 13:51:00,
2013-07-14 07:11:00,63.0,62.0,-100.00,NE,51,0.0,4.0,98,0.00,,,0.00,13.000000,,2013-07-14 14:11:00,
2013-07-14 07:23:00,63.0,62.0,-100.00,NE,51,0.0,4.0,98,0.00,,,0.00,13.000000,,2013-07-14 14:23:00,
2013-07-14 07:33:00,63.0,62.0,-100.00,NE,51,0.0,4.0,98,0.00,,,0.00,13.000000,,2013-07-14 14:33:00,
2013-07-14 07:43:00,63.0,62.0,-100.00,NE,51,0.0,4.0,98,0.00,,,0.00,13.000000,,2013-07-14 14:43:00,
2013-07-14 07:51:00,65.0,63.0,-100.00,NE,47,1.0,4.0,93,0.00,,,0.00,65.000000,,2013-07-14 14:51:00,
2013-07-14 08:12:00,65.0,63.0,-100.00,NE,47,1.0,4.0,93,0.00,,,0.00,65.000000,,2013-07-14 15:12:00,
2013-07-14 08:22:00,65.0,63.0,-100.00,NE,47,1.0,4.0,93,0.00,,,0.00,65.000000,,2013-07-14 15:22:00,
2013-07-14 08:32:00,65.0,63.0,-100.00,NE,47,1.0,4.0,93,0.00,,,0.00,65.000000,,2013-07-14 15:32:00,
2013-07-14 08:42:00,65.0,63.0,-100.00,NE,47,1.0,4.0,93,0.00,,,0.00,65.000000,,2013-07-14 15:42:00,
2013-07-14 08:51:00,70.0,63.0,-100.00,WNW,298,2.0,5.0,79,0.00,,,-99.99,180.000000,,2013-07-14 15:51:00,
2013-07-14 09:11:00,70.0,63.0,-100.00,WNW,298,2.0,5.0,79,0.00,,,-99.99,180.000000,,2013-07-14 16:11:00,
2013-07-14 09:22:00,70.0,63.0,-100.00,WNW,298,2.0,5.0,79,0.00,,,-99.99,180.000000,,2013-07-14 16:22:00,
2013-07-14 09:32:00,70.0,63.0,-100.00,WNW,298,2.0,5.0,79,0.00,,,-99.99,180.000000,,2013-07-14 16:32:00,
2013-07-14 09:43:00,70.0,63.0,-100.00,WNW,298,2.0,5.0,79,0.00,,,-99.99,180.000000,,2013-07-14 16:43:00,
2013-07-14 09:51:00,78.0,62.0,-100.00,West,265,7.0,11.0,59,0.00,,,0.00,643.000000,,2013-07-14 16:51:00,
2013-07-14 10:22:00,78.0,62.0,-100.00,West,265,7.0,11.0,59,0.00,,,0.00,643.000000,,2013-07-14 17:22:00,
2013-07-14 10:32:00,78.0,62.0,-100.00,West,265,7.0,11.0,59,0.00,,,0.00,643.000000,,2013-07-14 17:32:00,
2013-07-14 10:43:00,78.0,62.0,-100.00,West,265,7.0,11.0,59,0.00,,,0.00,643.000000,,2013-07-14 17:43:00,
2013-07-14 10:51:00,81.0,62.0,-100.00,West,269,8.0,14.0,52,0.00,,,0.00,718.000000,,2013-07-14 17:51:00,
2013-07-14 11:11:00,81.0,62.0,-100.00,West,269,8.0,14.0,52,0.00,,,0.00,718.000000,,2013-07-14 18:11:00,
2013-07-14 11:21:00,81.0,62.0,-100.00,West,269,8.0,14.0,52,0.00,,,0.00,718.000000,,2013-07-14 18:21:00,
2013-07-14 11:32:00,81.0,62.0,-100.00,West,269,8.0,14.0,52,0.00,,,0.00,718.000000,,2013-07-14 18:32:00,
2013-07-14 11:42:00,81.0,62.0,-100.00,West,269,8.0,14.0,52,0.00,,,0.00,718.000000,,2013-07-14 18:42:00,
2013-07-14 11:51:00,81.0,63.0,-100.00,WSW,257,10.0,15.0,54,0.00,,,0.00,848.000000,,2013-07-14 18:51:00,
2013-07-14 12:11:00,81.0,63.0,-100.00,WSW,257,10.0,15.0,54,0.00,,,0.00,848.000000,,2013-07-14 19:11:00,
2013-07-14 12:22:00,81.0,63.0,-100.00,WSW,257,10.0,15.0,54,0.00,,,0.00,848.000000,,2013-07-14 19:22:00,
2013-07-14 12:32:00,81.0,63.0,-100.00,WSW,257,10.0,15.0,54,0.00,,,0.00,848.000000,,2013-07-14 19:32:00,
2013-07-14 12:43:00,81.0,63.0,-100.00,WSW,257,10.0,15.0,54,0.00,,,0.00,848.000000,,2013-07-14 19:43:00,
2013-07-14 12:51:00,84.0,63.0,-100.00,West,260,10.0,16.0,50,0.00,,,0.00,906.000000,,2013-07-14 19:51:00,
2013-07-14 13:11:00,84.0,63.0,-100.00,West,260,10.0,16.0,50,0.00,,,0.00,906.000000,,2013-07-14 20:11:00,
2013-07-14 13:22:00,84.0,63.0,-100.00,West,260,10.0,16.0,50,0.00,,,0.00,906.000000,,2013-07-14 20:22:00,
2013-07-14 13:32:00,84.0,63.0,-100.00,West,260,10.0,16.0,50,0.00,,,0.00,906.000000,,2013-07-14 20:32:00,
2013-07-14 13:43:00,84.0,63.0,-100.00,West,260,10.0,16.0,50,0.00,,,0.00,906.000000,,2013-07-14 20:43:00,
2013-07-14 13:51:00,85.0,62.0,-100.00,WSW,246,10.0,17.0,47,0.00,,,0.00,923.000000,,2013-07-14 20:51:00,
2013-07-14 14:22:00,85.0,62.0,-100.00,WSW,246,10.0,17.0,47,0.00,,,0.00,923.000000,,2013-07-14 21:22:00,
2013-07-14 14:32:00,85.0,62.0,-100.00,WSW,246,10.0,17.0,47,0.00,,,0.00,923.000000,,2013-07-14 21:32:00,
2013-07-14 14:42:00,85.0,62.0,-100.00,WSW,246,10.0,17.0,47,0.00,,,0.00,923.000000,,2013-07-14 21:42:00,
2013-07-14 14:51:00,84.0,61.0,-100.00,WSW,249,14.0,18.0,46,0.00,,,0.00,880.000000,,2013-07-14 21:51:00,
2013-07-14 15:22:00,84.0,61.0,-100.00,WSW,249,14.0,18.0,46,0.00,,,0.00,880.000000,,2013-07-14 22:22:00,
2013-07-14 15:32:00,84.0,61.0,-100.00,WSW,249,14.0,18.0,46,0.00,,,0.00,880.000000,,2013-07-14 22:32:00,
2013-07-14 15:42:00,84.0,61.0,-100.00,WSW,249,14.0,18.0,46,0.00,,,0.00,880.000000,,2013-07-14 22:42:00,
2013-07-14 15:51:00,85.0,58.0,-100.00,WSW,255,13.0,18.0,40,0.00,,,0.00,785.000000,,2013-07-14 22:51:00,
2013-07-14 16:11:00,85.0,58.0,-100.00,WSW,255,13.0,18.0,40,0.00,,,0.00,785.000000,,2013-07-14 23:11:00,
2013-07-14 16:22:00,85.0,58.0,-100.00,WSW,255,13.0,18.0,40,0.00,,,0.00,785.000000,,2013-07-14 23:22:00,
2013-07-14 16:32:00,85.0,58.0,-100.00,WSW,255,13.0,18.0,40,0.00,,,0.00,785.000000,,2013-07-14 23:32:00,
2013-07-14 16:42:00,85.0,58.0,-100.00,WSW,255,13.0,18.0,40,0.00,,,0.00,785.000000,,2013-07-14 23:42:00,
2013-07-14 16:51:00,80.0,60.0,-100.00,West,262,14.0,19.0,50,0.00,,,0.00,640.000000,,2013-07-14 23:51:00,
2013-07-14 17:11:00,80.0,60.0,-100.00,West,262,14.0,19.0,50,0.00,,,0.00,640.000000,,2013-07-15 00:11:00,
2013-07-14 17:22:00,80.0,60.0,-100.00,West,262,14.0,19.0,50,0.00,,,0.00,640.000000,,2013-07-15 00:22:00,
2013-07-14 17:32:00,80.0,60.0,-100.00,West,262,14.0,19.0,50,0.00,,,0.00,640.000000,,2013-07-15 00:32:00,
2013-07-14 17:43:00,80.0,60.0,-100.00,West,262,14.0,19.0,50,0.00,,,0.00,640.000000,,2013-07-15 00:43:00,
2013-07-14 17:51:00,78.0,58.0,-100.00,West,262,11.0,18.0,51,0.00,,,0.00,461.000000,,2013-07-15 00:51:00,
2013-07-14 18:11:00,78.0,58.0,-100.00,West,262,11.0,18.0,51,0.00,,,0.00,461.000000,,2013-07-15 01:11:00,
2013-07-14 18:22:00,78.0,58.0,-100.00,West,262,11.0,18.0,51,0.00,,,0.00,461.000000,,2013-07-15 01:22:00,
2013-07-14 18:32:00,78.0,58.0,-100.00,West,262,11.0,18.0,51,0.00,,,0.00,461.000000,,2013-07-15 01:32:00,
2013-07-14 18:43:00,78.0,58.0,-100.00,West,262,11.0,18.0,51,0.00,,,0.00,461.000000,,2013-07-15 01:43:00,
2013-07-14 18:51:00,74.0,60.0,-100.00,West,259,9.0,13.0,61,0.00,,,0.00,271.000000,,2013-07-15 01:51:00,
2013-07-14 19:11:00,74.0,60.0,-100.00,West,259,9.0,13.0,61,0.00,,,0.00,271.000000,,2013-07-15 02:11:00,
2013-07-14 19:22:00,74.0,60.0,-100.00,West,259,9.0,13.0,61,0.00,,,0.00,271.000000,,2013-07-15 02:22:00,
2013-07-14 19:32:00,74.0,60.0,-100.00,West,259,9.0,13.0,61,0.00,,,0.00,271.000000,,2013-07-15 02:32:00,
2013-07-14 19:42:00,74.0,60.0,-100.00,West,259,9.0,13.0,61,0.00,,,0.00,271.000000,,2013-07-15 02:42:00,
2013-07-14 19:51:00,71.0,60.0,-100.00,West,274,7.0,10.0,68,0.00,,,0.00,89.000000,,2013-07-15 02:51:00,
2013-07-14 20:11:00,71.0,60.0,-100.00,West,274,7.0,10.0,68,0.00,,,0.00,89.000000,,2013-07-15 03:11:00,
2013-07-14 20:21:00,71.0,60.0,-100.00,West,274,7.0,10.0,68,0.00,,,0.00,89.000000,,2013-07-15 03:21:00,
2013-07-14 20:32:00,71.0,60.0,-100.00,West,274,7.0,10.0,68,0.00,,,0.00,89.000000,,2013-07-15 03:32:00,
2013-07-14 20:42:00,71.0,60.0,-100.00,West,274,7.0,10.0,68,0.00,,,0.00,89.000000,,2013-07-15 03:42:00,
2013-07-14 20:51:00,67.0,61.0,-100.00,WSW,247,4.0,7.0,80,0.00,,,0.00,2.000000,,2013-07-15 03:51:00,
2013-07-14 21:11:00,67.0,61.0,-100.00,WSW,247,4.0,7.0,80,0.00,,,0.00,2.000000,,2013-07-15 04:11:00,
2013-07-14 21:22:00,67.0,61.0,-100.00,WSW,247,4.0,7.0,80,0.00,,,0.00,2.000000,,2013-07-15 04:22:00,
2013-07-14 21:32:00,67.0,61.0,-100.00,WSW,247,4.0,7.0,80,0.00,,,0.00,2.000000,,2013-07-15 04:32:00,
2013-07-14 21:42:00,67.0,61.0,-100.00,WSW,247,4.0,7.0,80,0.00,,,0.00,2.000000,,2013-07-15 04:42:00,
2013-07-14 21:51:00,65.0,62.0,-100.00,South,190,5.0,11.0,89,0.00,,,0.00,0.000000,,2013-07-15 04:51:00,
2013-07-14 22:11:00,65.0,62.0,-100.00,South,190,5.0,11.0,89,0.00,,,0.00,0.000000,,2013-07-15 05:11:00,
2013-07-14 22:21:00,65.0,62.0,-100.00,South,190,5.0,11.0,89,0.00,,,0.00,0.000000,,2013-07-15 05:21:00,
2013-07-14 22:32:00,65.0,62.0,-100.00,South,190,5.0,11.0,89,0.00,,,0.00,0.000000,,2013-07-15 05:32:00,
2013-07-14 22:43:00,65.0,62.0,-100.00,South,190,5.0,11.0,89,0.00,,,0.00,0.000000,,2013-07-15 05:43:00,
2013-07-14 22:51:00,64.0,61.0,-100.00,SSW,205,3.0,7.0,91,0.00,,,0.00,0.000000,,2013-07-15 05:51:00,
2013-07-14 23:11:00,64.0,61.0,-100.00,SSW,205,3.0,7.0,91,0.00,,,0.00,0.000000,,2013-07-15 06:11:00,
2013-07-14 23:22:00,64.0,61.0,-100.00,SSW,205,3.0,7.0,91,0.00,,,0.00,0.000000,,2013-07-15 06:22:00,
2013-07-14 23:32:00,64.0,61.0,-100.00,SSW,205,3.0,7.0,91,0.00,,,0.00,0.000000,,2013-07-15 06:32:00,
2013-07-14 23:42:00,64.0,61.0,-100.00,SSW,205,3.0,7.0,91,0.00,,,0.00,0.000000,,2013-07-15 06:42:00,
2013-07-14 23:51:00,64.0,62.0,-100.00,West,267,2.0,8.0,94,0.00,,,0.00,0.000000,,2013-07-15 06:51:00,